sensor_id;sensor_type;location;lat;lon;timestamp;temperature;humidity
15296;DHT22;7749;49.964;7.890;2022-09-09T00:00:15;16.80;99.90
15296;DHT22;7749;49.964;7.890;2022-09-09T00:03:12;16.80;99.90
15296;DHT22;7749;49.964;7.890;2022-09-09T00:06:12;16.80;99.90
15296;DHT22;7749;49.964;7.890;2022-09-09T00:09:21;16.80;99.90
15296;DHT22;7749;49.964;7.890;2022-09-09T00:11:59;16.70;99.90
15296;DHT22;7749;49.964;7.890;2022-09-09T00:15:14;16.60;99.90
15296;DHT22;7749;49.964;7.890;2022-09-09T00:20:44;16.50;99.90
15296;DHT22;7749;49.964;7.890;2022-09-09T00:29:14;16.40;99.90
15296;DHT22;7749;49.964;7.890;2022-09-09T00:31:49;16.50;99.90
15296;DHT22;7749;49.964;7.890;2022-09-09T00:41:21;16.50;99.90
15296;DHT22;7749;49.964;7.890;2022-09-09T00:50:32;16.30;99.90
15296;DHT22;7749;49.964;7.890;2022-09-09T00:56:16;16.40;99.90
15296;DHT22;7749;49.964;7.890;2022-09-09T01:01:59;16.40;99.90
15296;DHT22;7749;49.964;7.890;2022-09-09T01:04:38;16.40;99.90
15296;DHT22;7749;49.964;7.890;2022-09-09T01:07:32;16.30;99.90
15296;DHT22;7749;49.964;7.890;2022-09-09T01:10:21;16.30;99.90
15296;DHT22;7749;49.964;7.890;2022-09-09T01:13:04;16.30;99.90
15296;DHT22;7749;49.964;7.890;2022-09-09T01:15:36;16.20;99.90
15296;DHT22;7749;49.964;7.890;2022-09-09T01:18:13;16.20;99.90
15296;DHT22;7749;49.964;7.890;2022-09-09T01:26:54;16.10;99.90
15296;DHT22;7749;49.964;7.890;2022-09-09T01:29:36;16.10;99.90
15296;DHT22;7749;49.964;7.890;2022-09-09T01:32:46;16.10;99.90
15296;DHT22;7749;49.964;7.890;2022-09-09T01:38:25;16.00;99.90
15296;DHT22;7749;49.964;7.890;2022-09-09T01:41:18;16.00;99.90
15296;DHT22;7749;49.964;7.890;2022-09-09T01:44:10;16.00;99.90
15296;DHT22;7749;49.964;7.890;2022-09-09T01:46:54;16.00;99.90
15296;DHT22;7749;49.964;7.890;2022-09-09T01:49:31;16.00;99.90
15296;DHT22;7749;49.964;7.890;2022-09-09T01:52:20;16.00;99.90
15296;DHT22;7749;49.964;7.890;2022-09-09T01:54:59;16.10;99.90
15296;DHT22;7749;49.964;7.890;2022-09-09T02:00:24;16.10;99.90
15296;DHT22;7749;49.964;7.890;2022-09-09T02:03:14;16.10;99.90
15296;DHT22;7749;49.964;7.890;2022-09-09T02:06:10;16.10;99.90
15296;DHT22;7749;49.964;7.890;2022-09-09T02:08:49;16.10;99.90
15296;DHT22;7749;49.964;7.890;2022-09-09T02:11:40;16.10;99.90
15296;DHT22;7749;49.964;7.890;2022-09-09T02:14:13;16.10;99.90
15296;DHT22;7749;49.964;7.890;2022-09-09T02:16:50;16.00;99.90
15296;DHT22;7749;49.964;7.890;2022-09-09T02:19:23;16.00;99.90
15296;DHT22;7749;49.964;7.890;2022-09-09T02:21:55;15.90;99.90
15296;DHT22;7749;49.964;7.890;2022-09-09T02:24:26;15.90;99.90
15296;DHT22;7749;49.964;7.890;2022-09-09T02:26:55;15.90;99.90
15296;DHT22;7749;49.964;7.890;2022-09-09T02:29:29;15.90;99.90
15296;DHT22;7749;49.964;7.890;2022-09-09T02:32:02;15.90;99.90
15296;DHT22;7749;49.964;7.890;2022-09-09T02:34:36;15.90;99.90
15296;DHT22;7749;49.964;7.890;2022-09-09T02:37:06;16.00;99.90
15296;DHT22;7749;49.964;7.890;2022-09-09T02:39:35;15.90;99.90
15296;DHT22;7749;49.964;7.890;2022-09-09T02:42:06;16.00;99.90
15296;DHT22;7749;49.964;7.890;2022-09-09T02:45:03;16.00;99.90
15296;DHT22;7749;49.964;7.890;2022-09-09T02:48:26;16.00;99.90
15296;DHT22;7749;49.964;7.890;2022-09-09T02:50:33;16.00;99.90
15296;DHT22;7749;49.964;7.890;2022-09-09T02:53:17;16.00;99.90
15296;DHT22;7749;49.964;7.890;2022-09-09T02:55:58;16.00;99.90
15296;DHT22;7749;49.964;7.890;2022-09-09T02:58:28;16.00;99.90
15296;DHT22;7749;49.964;7.890;2022-09-09T03:01:12;15.90;99.90
15296;DHT22;7749;49.964;7.890;2022-09-09T03:03:48;16.00;99.90
15296;DHT22;7749;49.964;7.890;2022-09-09T03:06:25;15.90;99.90
15296;DHT22;7749;49.964;7.890;2022-09-09T03:09:03;16.00;99.90
15296;DHT22;7749;49.964;7.890;2022-09-09T03:11:30;16.00;99.90
15296;DHT22;7749;49.964;7.890;2022-09-09T03:14:03;16.10;99.90
15296;DHT22;7749;49.964;7.890;2022-09-09T03:16:32;16.00;99.90
15296;DHT22;7749;49.964;7.890;2022-09-09T03:19:02;16.00;99.90
15296;DHT22;7749;49.964;7.890;2022-09-09T03:21:33;16.00;99.90
15296;DHT22;7749;49.964;7.890;2022-09-09T03:24:19;16.00;99.90
15296;DHT22;7749;49.964;7.890;2022-09-09T03:29:49;16.00;99.90
15296;DHT22;7749;49.964;7.890;2022-09-09T03:32:29;16.10;99.90
15296;DHT22;7749;49.964;7.890;2022-09-09T03:35:09;16.10;99.90
15296;DHT22;7749;49.964;7.890;2022-09-09T03:38:03;16.10;99.90
15296;DHT22;7749;49.964;7.890;2022-09-09T03:41:14;16.20;99.90
15296;DHT22;7749;49.964;7.890;2022-09-09T03:44:00;16.30;99.90
15296;DHT22;7749;49.964;7.890;2022-09-09T03:46:40;16.40;99.90
15296;DHT22;7749;49.964;7.890;2022-09-09T03:49:08;16.40;99.90
15296;DHT22;7749;49.964;7.890;2022-09-09T03:51:49;16.50;99.90
15296;DHT22;7749;49.964;7.890;2022-09-09T03:54:20;16.50;99.90
15296;DHT22;7749;49.964;7.890;2022-09-09T03:56:54;16.40;99.90
15296;DHT22;7749;49.964;7.890;2022-09-09T03:59:22;16.40;99.90
15296;DHT22;7749;49.964;7.890;2022-09-09T04:01:50;16.50;99.90
15296;DHT22;7749;49.964;7.890;2022-09-09T04:04:18;16.50;99.90
15296;DHT22;7749;49.964;7.890;2022-09-09T04:06:47;16.40;99.90
15296;DHT22;7749;49.964;7.890;2022-09-09T04:09:15;16.40;99.90
15296;DHT22;7749;49.964;7.890;2022-09-09T04:11:43;16.30;99.90
15296;DHT22;7749;49.964;7.890;2022-09-09T04:14:18;16.30;99.90
15296;DHT22;7749;49.964;7.890;2022-09-09T04:17:24;16.10;99.90
15296;DHT22;7749;49.964;7.890;2022-09-09T04:21:04;16.10;99.90
15296;DHT22;7749;49.964;7.890;2022-09-09T04:24:50;16.00;99.90
15296;DHT22;7749;49.964;7.890;2022-09-09T04:27:38;16.00;99.90
15296;DHT22;7749;49.964;7.890;2022-09-09T04:30:19;16.00;99.90
15296;DHT22;7749;49.964;7.890;2022-09-09T04:33:00;15.90;99.90
15296;DHT22;7749;49.964;7.890;2022-09-09T04:36:23;15.90;99.90
15296;DHT22;7749;49.964;7.890;2022-09-09T04:39:09;15.80;99.90
15296;DHT22;7749;49.964;7.890;2022-09-09T04:41:53;15.80;99.90
15296;DHT22;7749;49.964;7.890;2022-09-09T04:44:44;15.80;99.90
15296;DHT22;7749;49.964;7.890;2022-09-09T04:47:47;15.70;99.90
15296;DHT22;7749;49.964;7.890;2022-09-09T04:51:09;15.70;99.90
15296;DHT22;7749;49.964;7.890;2022-09-09T04:54:15;15.70;99.90
15296;DHT22;7749;49.964;7.890;2022-09-09T04:57:04;15.60;99.90
15296;DHT22;7749;49.964;7.890;2022-09-09T04:59:54;15.60;99.90
15296;DHT22;7749;49.964;7.890;2022-09-09T05:02:40;15.60;99.90
15296;DHT22;7749;49.964;7.890;2022-09-09T05:09:25;15.50;99.90
15296;DHT22;7749;49.964;7.890;2022-09-09T05:12:12;15.60;99.90
15296;DHT22;7749;49.964;7.890;2022-09-09T05:15:31;15.60;99.90
15296;DHT22;7749;49.964;7.890;2022-09-09T05:18:07;15.70;99.90
15296;DHT22;7749;49.964;7.890;2022-09-09T05:21:07;15.70;99.90
15296;DHT22;7749;49.964;7.890;2022-09-09T05:24:54;15.70;99.90
15296;DHT22;7749;49.964;7.890;2022-09-09T05:27:45;15.70;99.90
15296;DHT22;7749;49.964;7.890;2022-09-09T05:30:46;15.70;99.90
15296;DHT22;7749;49.964;7.890;2022-09-09T05:48:33;16.20;99.90
15296;DHT22;7749;49.964;7.890;2022-09-09T05:51:06;16.50;99.90
15296;DHT22;7749;49.964;7.890;2022-09-09T05:53:43;16.70;99.90
15296;DHT22;7749;49.964;7.890;2022-09-09T05:56:36;17.00;99.90
15296;DHT22;7749;49.964;7.890;2022-09-09T05:59:34;17.40;99.90
15296;DHT22;7749;49.964;7.890;2022-09-09T06:02:34;17.40;99.90
15296;DHT22;7749;49.964;7.890;2022-09-09T06:05:15;17.30;99.90
15296;DHT22;7749;49.964;7.890;2022-09-09T06:08:32;17.30;99.90
15296;DHT22;7749;49.964;7.890;2022-09-09T06:11:20;17.20;99.90
15296;DHT22;7749;49.964;7.890;2022-09-09T06:14:19;17.10;99.90
15296;DHT22;7749;49.964;7.890;2022-09-09T06:17:00;17.00;99.90
15296;DHT22;7749;49.964;7.890;2022-09-09T06:19:53;16.90;99.90
15296;DHT22;7749;49.964;7.890;2022-09-09T06:22:30;16.90;99.90
15296;DHT22;7749;49.964;7.890;2022-09-09T06:25:31;16.90;99.90
15296;DHT22;7749;49.964;7.890;2022-09-09T06:28:31;16.90;99.90
15296;DHT22;7749;49.964;7.890;2022-09-09T06:31:33;16.90;99.90
15296;DHT22;7749;49.964;7.890;2022-09-09T06:35:00;17.00;99.90
15296;DHT22;7749;49.964;7.890;2022-09-09T06:38:20;17.20;99.90
15296;DHT22;7749;49.964;7.890;2022-09-09T06:41:10;17.40;99.90
15296;DHT22;7749;49.964;7.890;2022-09-09T06:43:45;17.50;99.90
15296;DHT22;7749;49.964;7.890;2022-09-09T06:46:39;17.80;99.90
15296;DHT22;7749;49.964;7.890;2022-09-09T06:49:29;18.00;99.90
15296;DHT22;7749;49.964;7.890;2022-09-09T06:52:06;18.20;99.90
15296;DHT22;7749;49.964;7.890;2022-09-09T06:54:51;18.40;99.90
15296;DHT22;7749;49.964;7.890;2022-09-09T06:57:40;18.50;99.90
15296;DHT22;7749;49.964;7.890;2022-09-09T07:00:10;18.60;99.90
15296;DHT22;7749;49.964;7.890;2022-09-09T07:02:39;18.70;99.90
15296;DHT22;7749;49.964;7.890;2022-09-09T07:05:08;18.70;99.90
15296;DHT22;7749;49.964;7.890;2022-09-09T07:07:36;18.70;99.90
15296;DHT22;7749;49.964;7.890;2022-09-09T07:10:04;18.70;99.90
15296;DHT22;7749;49.964;7.890;2022-09-09T07:12:32;18.70;99.90
15296;DHT22;7749;49.964;7.890;2022-09-09T07:15:00;18.80;99.90
15296;DHT22;7749;49.964;7.890;2022-09-09T07:17:28;18.80;99.90
15296;DHT22;7749;49.964;7.890;2022-09-09T07:19:56;18.90;99.90
15296;DHT22;7749;49.964;7.890;2022-09-09T07:22:25;19.10;99.90
15296;DHT22;7749;49.964;7.890;2022-09-09T07:24:52;19.10;99.90
15296;DHT22;7749;49.964;7.890;2022-09-09T07:27:20;19.10;99.90
15296;DHT22;7749;49.964;7.890;2022-09-09T07:29:48;19.30;99.90
15296;DHT22;7749;49.964;7.890;2022-09-09T07:32:16;19.30;99.90
15296;DHT22;7749;49.964;7.890;2022-09-09T07:34:45;19.00;99.90
15296;DHT22;7749;49.964;7.890;2022-09-09T07:37:14;18.80;99.90
15296;DHT22;7749;49.964;7.890;2022-09-09T07:39:42;18.90;99.90
15296;DHT22;7749;49.964;7.890;2022-09-09T07:42:10;19.10;99.90
15296;DHT22;7749;49.964;7.890;2022-09-09T07:44:39;19.10;99.90
15296;DHT22;7749;49.964;7.890;2022-09-09T07:47:07;19.40;99.90
15296;DHT22;7749;49.964;7.890;2022-09-09T07:49:35;19.60;99.90
15296;DHT22;7749;49.964;7.890;2022-09-09T07:52:03;19.80;99.90
15296;DHT22;7749;49.964;7.890;2022-09-09T07:54:31;19.50;99.90
15296;DHT22;7749;49.964;7.890;2022-09-09T07:57:00;19.50;99.90
15296;DHT22;7749;49.964;7.890;2022-09-09T07:59:28;19.40;96.60
15296;DHT22;7749;49.964;7.890;2022-09-09T08:01:58;19.20;99.90
15296;DHT22;7749;49.964;7.890;2022-09-09T08:04:26;19.20;99.90
15296;DHT22;7749;49.964;7.890;2022-09-09T08:06:58;19.20;99.90
15296;DHT22;7749;49.964;7.890;2022-09-09T08:09:27;19.40;99.90
15296;DHT22;7749;49.964;7.890;2022-09-09T08:11:56;19.60;99.90
15296;DHT22;7749;49.964;7.890;2022-09-09T08:14:25;19.70;93.00
15296;DHT22;7749;49.964;7.890;2022-09-09T08:16:54;19.70;90.50
15296;DHT22;7749;49.964;7.890;2022-09-09T08:19:22;19.70;82.50
15296;DHT22;7749;49.964;7.890;2022-09-09T08:21:51;19.70;86.00
15296;DHT22;7749;49.964;7.890;2022-09-09T08:24:19;19.90;72.60
15296;DHT22;7749;49.964;7.890;2022-09-09T08:26:48;20.10;52.00
15296;DHT22;7749;49.964;7.890;2022-09-09T08:29:17;20.00;52.50
15296;DHT22;7749;49.964;7.890;2022-09-09T08:31:49;20.00;48.40
15296;DHT22;7749;49.964;7.890;2022-09-09T08:34:18;19.80;63.30
15296;DHT22;7749;49.964;7.890;2022-09-09T08:36:48;19.70;61.40
15296;DHT22;7749;49.964;7.890;2022-09-09T08:39:19;19.60;68.20
15296;DHT22;7749;49.964;7.890;2022-09-09T08:50:40;19.50;57.40
15296;DHT22;7749;49.964;7.890;2022-09-09T08:53:46;19.90;47.50
15296;DHT22;7749;49.964;7.890;2022-09-09T08:56:38;20.30;27.40
15296;DHT22;7749;49.964;7.890;2022-09-09T08:59:23;20.30;13.90
15296;DHT22;7749;49.964;7.890;2022-09-09T09:05:35;20.30;1.10
15296;DHT22;7749;49.964;7.890;2022-09-09T09:08:18;20.00;8.40
15296;DHT22;7749;49.964;7.890;2022-09-09T09:10:54;19.90;21.90
15296;DHT22;7749;49.964;7.890;2022-09-09T09:13:50;19.80;36.50
15296;DHT22;7749;49.964;7.890;2022-09-09T09:19:28;19.90;43.40
15296;DHT22;7749;49.964;7.890;2022-09-09T09:25:21;20.30;2.40
15296;DHT22;7749;49.964;7.890;2022-09-09T09:28:20;20.60;1.00
15296;DHT22;7749;49.964;7.890;2022-09-09T09:31:10;21.00;1.00
15296;DHT22;7749;49.964;7.890;2022-09-09T09:37:16;21.30;1.00
15296;DHT22;7749;49.964;7.890;2022-09-09T09:40:32;21.40;1.00
15296;DHT22;7749;49.964;7.890;2022-09-09T09:43:21;21.30;1.00
15296;DHT22;7749;49.964;7.890;2022-09-09T09:46:04;21.30;1.00
15296;DHT22;7749;49.964;7.890;2022-09-09T09:49:17;21.70;1.00
15296;DHT22;7749;49.964;7.890;2022-09-09T09:51:47;21.80;1.00
15296;DHT22;7749;49.964;7.890;2022-09-09T09:54:47;21.50;1.00
15296;DHT22;7749;49.964;7.890;2022-09-09T09:57:52;21.30;1.00
15296;DHT22;7749;49.964;7.890;2022-09-09T10:00:48;21.60;1.00
15296;DHT22;7749;49.964;7.890;2022-09-09T10:07:26;22.10;1.00
15296;DHT22;7749;49.964;7.890;2022-09-09T10:10:00;22.30;1.00
15296;DHT22;7749;49.964;7.890;2022-09-09T10:13:02;21.80;1.00
15296;DHT22;7749;49.964;7.890;2022-09-09T10:19:45;21.50;1.00
15296;DHT22;7749;49.964;7.890;2022-09-09T10:26:28;22.40;99.90
15296;DHT22;7749;49.964;7.890;2022-09-09T10:36:03;21.70;1.00
15296;DHT22;7749;49.964;7.890;2022-09-09T10:39:47;21.50;1.00
15296;DHT22;7749;49.964;7.890;2022-09-09T10:52:45;23.10;1.00
15296;DHT22;7749;49.964;7.890;2022-09-09T10:56:13;23.40;1.00
15296;DHT22;7749;49.964;7.890;2022-09-09T10:59:16;23.60;1.00
15296;DHT22;7749;49.964;7.890;2022-09-09T11:02:35;24.10;99.90
15296;DHT22;7749;49.964;7.890;2022-09-09T11:05:42;24.90;1.00
15296;DHT22;7749;49.964;7.890;2022-09-09T11:08:16;25.80;1.00
15296;DHT22;7749;49.964;7.890;2022-09-09T11:13:35;24.40;1.00
15296;DHT22;7749;49.964;7.890;2022-09-09T11:18:49;24.20;99.90
15296;DHT22;7749;49.964;7.890;2022-09-09T11:21:43;23.90;1.00
15296;DHT22;7749;49.964;7.890;2022-09-09T11:24:18;23.10;1.00
15296;DHT22;7749;49.964;7.890;2022-09-09T11:26:52;22.90;1.20
15296;DHT22;7749;49.964;7.890;2022-09-09T11:30:16;22.20;99.90
15296;DHT22;7749;49.964;7.890;2022-09-09T11:38:28;21.50;99.90
15296;DHT22;7749;49.964;7.890;2022-09-09T11:41:00;21.40;1.00
15296;DHT22;7749;49.964;7.890;2022-09-09T11:43:49;21.00;1.00
15296;DHT22;7749;49.964;7.890;2022-09-09T11:46:21;20.70;1.00
15296;DHT22;7749;49.964;7.890;2022-09-09T11:49:02;20.70;1.00
15296;DHT22;7749;49.964;7.890;2022-09-09T11:51:34;20.50;1.00
15296;DHT22;7749;49.964;7.890;2022-09-09T11:54:30;20.60;1.00
15296;DHT22;7749;49.964;7.890;2022-09-09T11:57:02;20.50;1.00
15296;DHT22;7749;49.964;7.890;2022-09-09T11:59:33;20.60;1.00
15296;DHT22;7749;49.964;7.890;2022-09-09T12:02:22;20.80;1.00
15296;DHT22;7749;49.964;7.890;2022-09-09T12:05:10;23.50;44.50
15296;DHT22;7749;49.964;7.890;2022-09-09T12:07:56;27.20;1.00
15296;DHT22;7749;49.964;7.890;2022-09-09T12:10:29;29.60;1.00
15296;DHT22;7749;49.964;7.890;2022-09-09T12:13:27;30.40;1.00
15296;DHT22;7749;49.964;7.890;2022-09-09T12:15:56;29.80;1.00
15296;DHT22;7749;49.964;7.890;2022-09-09T12:18:33;30.40;1.00
15296;DHT22;7749;49.964;7.890;2022-09-09T12:23:52;33.00;99.90
15296;DHT22;7749;49.964;7.890;2022-09-09T12:27:30;33.20;99.90
15296;DHT22;7749;49.964;7.890;2022-09-09T12:29:55;34.00;99.90
15296;DHT22;7749;49.964;7.890;2022-09-09T12:32:26;33.50;99.90
15296;DHT22;7749;49.964;7.890;2022-09-09T12:35:22;33.80;99.90
15296;DHT22;7749;49.964;7.890;2022-09-09T12:38:00;33.60;99.90
15296;DHT22;7749;49.964;7.890;2022-09-09T12:40:33;33.90;99.90
15296;DHT22;7749;49.964;7.890;2022-09-09T12:43:21;33.30;99.90
15296;DHT22;7749;49.964;7.890;2022-09-09T12:45:52;34.00;99.90
15296;DHT22;7749;49.964;7.890;2022-09-09T12:48:38;34.30;99.90
15296;DHT22;7749;49.964;7.890;2022-09-09T12:56:27;33.40;99.90
15296;DHT22;7749;49.964;7.890;2022-09-09T12:58:57;34.80;99.90
15296;DHT22;7749;49.964;7.890;2022-09-09T13:01:30;35.40;99.90
15296;DHT22;7749;49.964;7.890;2022-09-09T13:03:59;34.90;99.90
15296;DHT22;7749;49.964;7.890;2022-09-09T13:06:29;33.10;99.90
15296;DHT22;7749;49.964;7.890;2022-09-09T13:09:02;30.90;99.90
15296;DHT22;7749;49.964;7.890;2022-09-09T13:11:50;28.60;99.90
15296;DHT22;7749;49.964;7.890;2022-09-09T13:14:29;26.40;99.90
15296;DHT22;7749;49.964;7.890;2022-09-09T13:17:02;25.00;99.90
15296;DHT22;7749;49.964;7.890;2022-09-09T13:19:38;23.70;1.00
15296;DHT22;7749;49.964;7.890;2022-09-09T13:22:14;23.00;99.90
15296;DHT22;7749;49.964;7.890;2022-09-09T13:24:43;22.50;99.90
15296;DHT22;7749;49.964;7.890;2022-09-09T13:30:29;21.40;1.00
15296;DHT22;7749;49.964;7.890;2022-09-09T13:35:44;20.90;1.00
15296;DHT22;7749;49.964;7.890;2022-09-09T13:38:15;20.80;1.00
15296;DHT22;7749;49.964;7.890;2022-09-09T13:40:54;20.70;1.00
15296;DHT22;7749;49.964;7.890;2022-09-09T13:43:25;20.40;13.00
15296;DHT22;7749;49.964;7.890;2022-09-09T13:46:00;20.10;23.50
15296;DHT22;7749;49.964;7.890;2022-09-09T13:48:29;20.20;39.90
15296;DHT22;7749;49.964;7.890;2022-09-09T13:51:02;20.80;49.20
15296;DHT22;7749;49.964;7.890;2022-09-09T13:53:32;21.40;1.00
15296;DHT22;7749;49.964;7.890;2022-09-09T13:56:01;22.30;1.00
15296;DHT22;7749;49.964;7.890;2022-09-09T13:58:30;22.90;1.00
15296;DHT22;7749;49.964;7.890;2022-09-09T14:00:58;23.10;1.00
15296;DHT22;7749;49.964;7.890;2022-09-09T14:03:26;23.10;1.00
15296;DHT22;7749;49.964;7.890;2022-09-09T14:05:54;23.20;1.00
15296;DHT22;7749;49.964;7.890;2022-09-09T14:08:26;23.80;1.00
15296;DHT22;7749;49.964;7.890;2022-09-09T14:10:54;25.40;1.00
15296;DHT22;7749;49.964;7.890;2022-09-09T14:13:23;27.30;99.90
15296;DHT22;7749;49.964;7.890;2022-09-09T14:15:51;30.10;1.00
15296;DHT22;7749;49.964;7.890;2022-09-09T14:18:20;32.00;1.00
15296;DHT22;7749;49.964;7.890;2022-09-09T14:20:49;34.00;99.90
15296;DHT22;7749;49.964;7.890;2022-09-09T14:23:20;34.90;99.90
15296;DHT22;7749;49.964;7.890;2022-09-09T14:25:49;35.40;99.90
15296;DHT22;7749;49.964;7.890;2022-09-09T14:28:17;35.30;99.90
15296;DHT22;7749;49.964;7.890;2022-09-09T14:30:52;35.80;99.90
15296;DHT22;7749;49.964;7.890;2022-09-09T14:33:20;35.30;99.90
15296;DHT22;7749;49.964;7.890;2022-09-09T14:35:59;34.40;99.90
15296;DHT22;7749;49.964;7.890;2022-09-09T14:38:29;33.50;99.90
15296;DHT22;7749;49.964;7.890;2022-09-09T14:40:57;33.10;99.90
15296;DHT22;7749;49.964;7.890;2022-09-09T14:43:25;31.50;99.90
15296;DHT22;7749;49.964;7.890;2022-09-09T14:45:54;30.10;99.90
15296;DHT22;7749;49.964;7.890;2022-09-09T14:48:22;30.90;99.90
15296;DHT22;7749;49.964;7.890;2022-09-09T14:50:49;31.40;99.90
15296;DHT22;7749;49.964;7.890;2022-09-09T14:53:17;29.80;1.00
15296;DHT22;7749;49.964;7.890;2022-09-09T14:55:44;30.60;1.00
15296;DHT22;7749;49.964;7.890;2022-09-09T14:58:14;31.50;99.90
15296;DHT22;7749;49.964;7.890;2022-09-09T15:00:41;31.60;99.90
15296;DHT22;7749;49.964;7.890;2022-09-09T15:03:09;30.10;1.00
15296;DHT22;7749;49.964;7.890;2022-09-09T15:05:38;29.90;1.00
15296;DHT22;7749;49.964;7.890;2022-09-09T15:08:05;29.60;1.00
15296;DHT22;7749;49.964;7.890;2022-09-09T15:10:33;30.20;1.00
15296;DHT22;7749;49.964;7.890;2022-09-09T15:13:00;28.80;1.00
15296;DHT22;7749;49.964;7.890;2022-09-09T15:15:28;27.30;1.00
15296;DHT22;7749;49.964;7.890;2022-09-09T15:18:00;26.30;1.00
15296;DHT22;7749;49.964;7.890;2022-09-09T15:20:28;25.30;99.90
15296;DHT22;7749;49.964;7.890;2022-09-09T15:22:55;24.40;1.00
15296;DHT22;7749;49.964;7.890;2022-09-09T15:25:23;23.50;1.00
15296;DHT22;7749;49.964;7.890;2022-09-09T15:27:51;22.80;1.00
15296;DHT22;7749;49.964;7.890;2022-09-09T15:30:19;22.80;1.00
15296;DHT22;7749;49.964;7.890;2022-09-09T15:32:46;23.50;1.00
15296;DHT22;7749;49.964;7.890;2022-09-09T15:35:14;24.70;1.00
15296;DHT22;7749;49.964;7.890;2022-09-09T15:37:42;25.80;99.90
15296;DHT22;7749;49.964;7.890;2022-09-09T15:40:10;25.70;99.90
15296;DHT22;7749;49.964;7.890;2022-09-09T15:42:38;25.50;99.90
15296;DHT22;7749;49.964;7.890;2022-09-09T15:45:06;24.80;1.00
15296;DHT22;7749;49.964;7.890;2022-09-09T15:47:34;24.10;99.90
15296;DHT22;7749;49.964;7.890;2022-09-09T15:50:02;23.60;1.00
15296;DHT22;7749;49.964;7.890;2022-09-09T15:52:30;23.20;1.00
15296;DHT22;7749;49.964;7.890;2022-09-09T15:54:57;22.70;1.00
15296;DHT22;7749;49.964;7.890;2022-09-09T15:57:27;22.40;1.00
15296;DHT22;7749;49.964;7.890;2022-09-09T15:59:54;22.10;1.00
15296;DHT22;7749;49.964;7.890;2022-09-09T16:02:22;21.90;1.00
15296;DHT22;7749;49.964;7.890;2022-09-09T16:04:53;21.80;1.00
15296;DHT22;7749;49.964;7.890;2022-09-09T16:07:21;21.50;1.00
15296;DHT22;7749;49.964;7.890;2022-09-09T16:09:48;21.20;1.00
15296;DHT22;7749;49.964;7.890;2022-09-09T16:12:18;20.90;1.00
15296;DHT22;7749;49.964;7.890;2022-09-09T16:14:46;20.80;1.00
15296;DHT22;7749;49.964;7.890;2022-09-09T16:17:14;20.70;1.00
15296;DHT22;7749;49.964;7.890;2022-09-09T16:19:42;20.50;1.00
15296;DHT22;7749;49.964;7.890;2022-09-09T16:22:10;20.30;5.80
15296;DHT22;7749;49.964;7.890;2022-09-09T16:24:38;19.70;36.50
15296;DHT22;7749;49.964;7.890;2022-09-09T16:27:05;19.50;51.60
15296;DHT22;7749;49.964;7.890;2022-09-09T16:29:34;19.30;98.90
15296;DHT22;7749;49.964;7.890;2022-09-09T16:32:01;19.40;99.90
15296;DHT22;7749;49.964;7.890;2022-09-09T16:34:31;19.50;99.70
15296;DHT22;7749;49.964;7.890;2022-09-09T16:36:58;19.50;99.90
15296;DHT22;7749;49.964;7.890;2022-09-09T16:39:30;19.40;99.90
15296;DHT22;7749;49.964;7.890;2022-09-09T16:42:36;19.40;99.90
15296;DHT22;7749;49.964;7.890;2022-09-09T16:45:17;19.20;99.90
15296;DHT22;7749;49.964;7.890;2022-09-09T16:47:48;18.80;99.90
15296;DHT22;7749;49.964;7.890;2022-09-09T16:50:16;18.50;99.90
15296;DHT22;7749;49.964;7.890;2022-09-09T16:52:43;18.30;99.90
15296;DHT22;7749;49.964;7.890;2022-09-09T16:55:11;18.10;99.90
15296;DHT22;7749;49.964;7.890;2022-09-09T16:57:39;18.00;99.90
15296;DHT22;7749;49.964;7.890;2022-09-09T17:00:07;17.90;99.90
15296;DHT22;7749;49.964;7.890;2022-09-09T17:02:47;17.80;99.90
15296;DHT22;7749;49.964;7.890;2022-09-09T17:05:14;17.80;99.90
15296;DHT22;7749;49.964;7.890;2022-09-09T17:07:42;17.80;99.90
15296;DHT22;7749;49.964;7.890;2022-09-09T17:10:11;17.80;99.90
15296;DHT22;7749;49.964;7.890;2022-09-09T17:12:39;17.80;99.90
15296;DHT22;7749;49.964;7.890;2022-09-09T17:15:09;17.90;99.90
15296;DHT22;7749;49.964;7.890;2022-09-09T17:17:37;17.90;99.90
15296;DHT22;7749;49.964;7.890;2022-09-09T17:20:09;18.00;99.90
15296;DHT22;7749;49.964;7.890;2022-09-09T17:22:37;18.00;99.90
15296;DHT22;7749;49.964;7.890;2022-09-09T17:25:07;17.90;99.90
15296;DHT22;7749;49.964;7.890;2022-09-09T17:27:35;17.90;99.90
15296;DHT22;7749;49.964;7.890;2022-09-09T17:30:03;17.90;99.90
15296;DHT22;7749;49.964;7.890;2022-09-09T17:32:31;18.00;99.90
15296;DHT22;7749;49.964;7.890;2022-09-09T17:34:59;18.00;99.90
15296;DHT22;7749;49.964;7.890;2022-09-09T17:37:26;17.90;99.90
15296;DHT22;7749;49.964;7.890;2022-09-09T17:39:54;17.80;99.90
15296;DHT22;7749;49.964;7.890;2022-09-09T17:42:22;17.80;99.90
15296;DHT22;7749;49.964;7.890;2022-09-09T17:44:49;17.80;99.90
15296;DHT22;7749;49.964;7.890;2022-09-09T17:47:17;17.70;99.90
15296;DHT22;7749;49.964;7.890;2022-09-09T17:49:45;17.60;99.90
15296;DHT22;7749;49.964;7.890;2022-09-09T17:52:12;17.70;99.90
15296;DHT22;7749;49.964;7.890;2022-09-09T17:54:40;17.60;99.90
15296;DHT22;7749;49.964;7.890;2022-09-09T17:57:08;17.60;99.90
15296;DHT22;7749;49.964;7.890;2022-09-09T17:59:36;17.60;99.90
15296;DHT22;7749;49.964;7.890;2022-09-09T18:02:04;17.60;99.90
15296;DHT22;7749;49.964;7.890;2022-09-09T18:04:32;17.50;99.90
15296;DHT22;7749;49.964;7.890;2022-09-09T18:07:00;17.50;99.90
15296;DHT22;7749;49.964;7.890;2022-09-09T18:09:29;17.50;99.90
15296;DHT22;7749;49.964;7.890;2022-09-09T18:11:58;17.40;99.90
15296;DHT22;7749;49.964;7.890;2022-09-09T18:14:29;17.40;99.90
15296;DHT22;7749;49.964;7.890;2022-09-09T18:16:59;17.30;99.90
15296;DHT22;7749;49.964;7.890;2022-09-09T18:19:28;17.30;99.90
15296;DHT22;7749;49.964;7.890;2022-09-09T18:22:00;17.20;99.90
15296;DHT22;7749;49.964;7.890;2022-09-09T18:24:30;17.10;99.90
15296;DHT22;7749;49.964;7.890;2022-09-09T18:26:58;17.10;99.90
15296;DHT22;7749;49.964;7.890;2022-09-09T18:29:25;17.10;99.90
15296;DHT22;7749;49.964;7.890;2022-09-09T18:31:54;17.00;99.90
15296;DHT22;7749;49.964;7.890;2022-09-09T18:34:23;16.90;99.90
15296;DHT22;7749;49.964;7.890;2022-09-09T18:36:52;16.90;99.90
15296;DHT22;7749;49.964;7.890;2022-09-09T18:39:24;16.90;99.90
15296;DHT22;7749;49.964;7.890;2022-09-09T18:41:56;16.80;99.90
15296;DHT22;7749;49.964;7.890;2022-09-09T18:44:29;16.80;99.90
15296;DHT22;7749;49.964;7.890;2022-09-09T18:46:57;16.80;99.90
15296;DHT22;7749;49.964;7.890;2022-09-09T18:49:25;16.80;99.90
15296;DHT22;7749;49.964;7.890;2022-09-09T18:51:53;16.80;99.90
15296;DHT22;7749;49.964;7.890;2022-09-09T18:54:23;16.70;99.90
15296;DHT22;7749;49.964;7.890;2022-09-09T18:56:51;16.70;99.90
15296;DHT22;7749;49.964;7.890;2022-09-09T18:59:22;16.60;99.90
15296;DHT22;7749;49.964;7.890;2022-09-09T19:01:52;16.60;99.90
15296;DHT22;7749;49.964;7.890;2022-09-09T19:04:21;16.60;99.90
15296;DHT22;7749;49.964;7.890;2022-09-09T19:06:50;16.60;99.90
15296;DHT22;7749;49.964;7.890;2022-09-09T19:09:27;16.60;99.90
15296;DHT22;7749;49.964;7.890;2022-09-09T19:11:56;16.50;99.90
15296;DHT22;7749;49.964;7.890;2022-09-09T19:14:24;16.60;99.90
15296;DHT22;7749;49.964;7.890;2022-09-09T19:16:51;16.60;99.90